sensor_id;sensor_type;location;lat;lon;timestamp;P1;durP1;ratioP1;P2;durP2;ratioP2
6438;SDS011;3252;52.540;13.290;2023-04-03T00:01:49;8.17;;;1.80;;
6438;SDS011;3252;52.540;13.290;2023-04-03T00:03:54;6.10;;;1.80;;
6438;SDS011;3252;52.540;13.290;2023-04-03T00:05:56;5.93;;;2.13;;
6438;SDS011;3252;52.540;13.290;2023-04-03T00:08:01;9.57;;;1.87;;
6438;SDS011;3252;52.540;13.290;2023-04-03T00:10:09;10.73;;;1.93;;
6438;SDS011;3252;52.540;13.290;2023-04-03T00:12:14;2.87;;;1.47;;
6438;SDS011;3252;52.540;13.290;2023-04-03T00:14:18;5.93;;;1.80;;
6438;SDS011;3252;52.540;13.290;2023-04-03T00:16:20;8.07;;;2.47;;
6438;SDS011;3252;52.540;13.290;2023-04-03T00:18:26;9.60;;;2.00;;
6438;SDS011;3252;52.540;13.290;2023-04-03T00:20:28;7.97;;;1.90;;
6438;SDS011;3252;52.540;13.290;2023-04-03T00:22:31;6.37;;;1.80;;
6438;SDS011;3252;52.540;13.290;2023-04-03T00:24:35;7.20;;;2.17;;
6438;SDS011;3252;52.540;13.290;2023-04-03T00:26:41;7.57;;;2.23;;
6438;SDS011;3252;52.540;13.290;2023-04-03T00:28:44;5.33;;;1.67;;
6438;SDS011;3252;52.540;13.290;2023-04-03T00:30:48;8.17;;;1.90;;
6438;SDS011;3252;52.540;13.290;2023-04-03T00:32:51;7.27;;;1.90;;
6438;SDS011;3252;52.540;13.290;2023-04-03T00:34:57;6.30;;;1.83;;
6438;SDS011;3252;52.540;13.290;2023-04-03T00:36:59;7.23;;;1.70;;
6438;SDS011;3252;52.540;13.290;2023-04-03T00:39:02;8.70;;;1.70;;
6438;SDS011;3252;52.540;13.290;2023-04-03T00:43:36;6.87;;;2.03;;
6438;SDS011;3252;52.540;13.290;2023-04-03T00:45:40;10.97;;;2.03;;
6438;SDS011;3252;52.540;13.290;2023-04-03T00:47:43;8.97;;;1.87;;
6438;SDS011;3252;52.540;13.290;2023-04-03T00:49:46;7.67;;;2.13;;
6438;SDS011;3252;52.540;13.290;2023-04-03T00:51:52;7.40;;;2.07;;
6438;SDS011;3252;52.540;13.290;2023-04-03T00:53:58;7.83;;;2.57;;
6438;SDS011;3252;52.540;13.290;2023-04-03T00:56:03;5.43;;;1.97;;
6438;SDS011;3252;52.540;13.290;2023-04-03T00:58:09;6.53;;;1.80;;
6438;SDS011;3252;52.540;13.290;2023-04-03T01:00:19;7.40;;;1.80;;
6438;SDS011;3252;52.540;13.290;2023-04-03T01:02:22;8.33;;;1.33;;
6438;SDS011;3252;52.540;13.290;2023-04-03T01:04:27;11.43;;;2.10;;
6438;SDS011;3252;52.540;13.290;2023-04-03T01:06:31;10.23;;;1.90;;
6438;SDS011;3252;52.540;13.290;2023-04-03T01:08:42;7.10;;;1.70;;
6438;SDS011;3252;52.540;13.290;2023-04-03T01:10:47;4.03;;;1.43;;
6438;SDS011;3252;52.540;13.290;2023-04-03T01:12:53;5.90;;;1.70;;
6438;SDS011;3252;52.540;13.290;2023-04-03T01:14:56;6.13;;;1.90;;
6438;SDS011;3252;52.540;13.290;2023-04-03T01:19:31;5.87;;;1.83;;
6438;SDS011;3252;52.540;13.290;2023-04-03T01:21:57;8.17;;;1.97;;
6438;SDS011;3252;52.540;13.290;2023-04-03T01:24:17;10.97;;;2.20;;
6438;SDS011;3252;52.540;13.290;2023-04-03T01:26:29;7.43;;;2.20;;
6438;SDS011;3252;52.540;13.290;2023-04-03T01:28:32;6.30;;;1.80;;
6438;SDS011;3252;52.540;13.290;2023-04-03T01:30:38;8.93;;;1.90;;
6438;SDS011;3252;52.540;13.290;2023-04-03T01:32:46;5.57;;;2.07;;
6438;SDS011;3252;52.540;13.290;2023-04-03T01:34:51;5.27;;;1.70;;
6438;SDS011;3252;52.540;13.290;2023-04-03T01:36:55;6.60;;;2.20;;
6438;SDS011;3252;52.540;13.290;2023-04-03T01:38:59;8.17;;;2.30;;
6438;SDS011;3252;52.540;13.290;2023-04-03T01:41:03;9.00;;;2.20;;
6438;SDS011;3252;52.540;13.290;2023-04-03T01:43:05;7.63;;;1.90;;
6438;SDS011;3252;52.540;13.290;2023-04-03T01:45:08;6.83;;;1.90;;
6438;SDS011;3252;52.540;13.290;2023-04-03T01:47:11;7.20;;;2.13;;
6438;SDS011;3252;52.540;13.290;2023-04-03T01:49:16;6.60;;;1.93;;
6438;SDS011;3252;52.540;13.290;2023-04-03T01:51:28;10.80;;;2.43;;
6438;SDS011;3252;52.540;13.290;2023-04-03T01:53:31;6.43;;;1.87;;
6438;SDS011;3252;52.540;13.290;2023-04-03T01:55:34;7.17;;;2.17;;
6438;SDS011;3252;52.540;13.290;2023-04-03T01:57:39;7.17;;;1.93;;
6438;SDS011;3252;52.540;13.290;2023-04-03T01:59:42;9.40;;;1.80;;
6438;SDS011;3252;52.540;13.290;2023-04-03T02:01:44;5.60;;;2.00;;
6438;SDS011;3252;52.540;13.290;2023-04-03T02:03:47;9.40;;;2.30;;
6438;SDS011;3252;52.540;13.290;2023-04-03T02:05:51;8.83;;;1.80;;
6438;SDS011;3252;52.540;13.290;2023-04-03T02:07:54;5.93;;;1.80;;
6438;SDS011;3252;52.540;13.290;2023-04-03T02:09:59;12.30;;;2.30;;
6438;SDS011;3252;52.540;13.290;2023-04-03T02:12:03;6.23;;;1.90;;
6438;SDS011;3252;52.540;13.290;2023-04-03T02:14:07;7.73;;;2.37;;
6438;SDS011;3252;52.540;13.290;2023-04-03T02:16:10;12.60;;;2.40;;
6438;SDS011;3252;52.540;13.290;2023-04-03T02:18:14;9.00;;;2.57;;
6438;SDS011;3252;52.540;13.290;2023-04-03T02:20:16;8.40;;;2.40;;
6438;SDS011;3252;52.540;13.290;2023-04-03T02:22:20;9.67;;;2.23;;
6438;SDS011;3252;52.540;13.290;2023-04-03T02:24:22;10.57;;;2.40;;
6438;SDS011;3252;52.540;13.290;2023-04-03T02:26:24;10.20;;;2.00;;
6438;SDS011;3252;52.540;13.290;2023-04-03T02:28:30;8.83;;;2.40;;
6438;SDS011;3252;52.540;13.290;2023-04-03T02:30:32;10.80;;;2.40;;
6438;SDS011;3252;52.540;13.290;2023-04-03T02:32:39;10.37;;;2.30;;
6438;SDS011;3252;52.540;13.290;2023-04-03T02:34:44;8.53;;;2.27;;
6438;SDS011;3252;52.540;13.290;2023-04-03T02:36:50;9.53;;;2.50;;
6438;SDS011;3252;52.540;13.290;2023-04-03T02:38:55;6.50;;;2.33;;
6438;SDS011;3252;52.540;13.290;2023-04-03T02:41:04;6.87;;;1.97;;
6438;SDS011;3252;52.540;13.290;2023-04-03T02:43:07;9.03;;;2.03;;
6438;SDS011;3252;52.540;13.290;2023-04-03T02:45:15;10.57;;;2.07;;
6438;SDS011;3252;52.540;13.290;2023-04-03T02:47:17;5.97;;;2.10;;
6438;SDS011;3252;52.540;13.290;2023-04-03T02:49:20;9.07;;;2.20;;
6438;SDS011;3252;52.540;13.290;2023-04-03T02:51:23;12.03;;;2.67;;
6438;SDS011;3252;52.540;13.290;2023-04-03T02:53:27;10.57;;;2.40;;
6438;SDS011;3252;52.540;13.290;2023-04-03T02:55:38;6.97;;;1.80;;
6438;SDS011;3252;52.540;13.290;2023-04-03T02:57:43;6.00;;;1.80;;
6438;SDS011;3252;52.540;13.290;2023-04-03T02:59:46;6.73;;;1.93;;
6438;SDS011;3252;52.540;13.290;2023-04-03T03:01:49;6.37;;;2.20;;
6438;SDS011;3252;52.540;13.290;2023-04-03T03:03:56;7.57;;;2.37;;
6438;SDS011;3252;52.540;13.290;2023-04-03T03:06:02;6.67;;;2.00;;
6438;SDS011;3252;52.540;13.290;2023-04-03T03:08:09;7.87;;;2.30;;
6438;SDS011;3252;52.540;13.290;2023-04-03T03:10:11;7.03;;;2.10;;
6438;SDS011;3252;52.540;13.290;2023-04-03T03:12:16;7.90;;;1.90;;
6438;SDS011;3252;52.540;13.290;2023-04-03T03:14:21;9.67;;;2.23;;
6438;SDS011;3252;52.540;13.290;2023-04-03T03:16:27;7.67;;;2.10;;
6438;SDS011;3252;52.540;13.290;2023-04-03T03:18:30;9.90;;;2.40;;
6438;SDS011;3252;52.540;13.290;2023-04-03T03:20:36;6.37;;;1.83;;
6438;SDS011;3252;52.540;13.290;2023-04-03T03:22:39;7.23;;;1.80;;
6438;SDS011;3252;52.540;13.290;2023-04-03T03:24:41;7.80;;;2.50;;
6438;SDS011;3252;52.540;13.290;2023-04-03T03:26:48;8.93;;;2.40;;
6438;SDS011;3252;52.540;13.290;2023-04-03T03:28:52;7.87;;;1.63;;
6438;SDS011;3252;52.540;13.290;2023-04-03T03:30:58;5.60;;;1.80;;
6438;SDS011;3252;52.540;13.290;2023-04-03T03:33:01;6.87;;;1.60;;
6438;SDS011;3252;52.540;13.290;2023-04-03T03:35:04;8.20;;;2.00;;
6438;SDS011;3252;52.540;13.290;2023-04-03T03:37:06;6.67;;;1.80;;
6438;SDS011;3252;52.540;13.290;2023-04-03T03:39:10;8.40;;;2.20;;
6438;SDS011;3252;52.540;13.290;2023-04-03T03:41:12;9.53;;;1.97;;
6438;SDS011;3252;52.540;13.290;2023-04-03T03:43:19;8.13;;;1.70;;
6438;SDS011;3252;52.540;13.290;2023-04-03T03:45:25;6.40;;;1.87;;
6438;SDS011;3252;52.540;13.290;2023-04-03T03:47:27;10.03;;;2.00;;
6438;SDS011;3252;52.540;13.290;2023-04-03T03:49:30;6.30;;;1.73;;
6438;SDS011;3252;52.540;13.290;2023-04-03T03:51:33;6.67;;;2.00;;
6438;SDS011;3252;52.540;13.290;2023-04-03T03:53:36;10.63;;;1.97;;
6438;SDS011;3252;52.540;13.290;2023-04-03T03:55:41;9.87;;;2.03;;
6438;SDS011;3252;52.540;13.290;2023-04-03T03:57:44;8.50;;;1.70;;
6438;SDS011;3252;52.540;13.290;2023-04-03T03:59:51;8.10;;;1.80;;
6438;SDS011;3252;52.540;13.290;2023-04-03T04:01:55;6.80;;;2.00;;
6438;SDS011;3252;52.540;13.290;2023-04-03T04:03:58;8.10;;;1.87;;
6438;SDS011;3252;52.540;13.290;2023-04-03T04:06:04;5.23;;;1.43;;
6438;SDS011;3252;52.540;13.290;2023-04-03T04:08:07;9.57;;;1.90;;
6438;SDS011;3252;52.540;13.290;2023-04-03T04:10:10;6.87;;;1.70;;
6438;SDS011;3252;52.540;13.290;2023-04-03T04:12:18;6.27;;;1.70;;
6438;SDS011;3252;52.540;13.290;2023-04-03T04:14:23;7.50;;;1.70;;
6438;SDS011;3252;52.540;13.290;2023-04-03T04:16:26;9.87;;;2.07;;
6438;SDS011;3252;52.540;13.290;2023-04-03T04:18:32;9.43;;;2.07;;
6438;SDS011;3252;52.540;13.290;2023-04-03T04:20:37;7.17;;;1.93;;
6438;SDS011;3252;52.540;13.290;2023-04-03T04:22:40;6.83;;;1.67;;
6438;SDS011;3252;52.540;13.290;2023-04-03T04:24:43;7.43;;;1.70;;
6438;SDS011;3252;52.540;13.290;2023-04-03T04:26:45;5.83;;;1.97;;
6438;SDS011;3252;52.540;13.290;2023-04-03T04:28:54;8.00;;;2.03;;
6438;SDS011;3252;52.540;13.290;2023-04-03T04:30:56;8.07;;;1.77;;
6438;SDS011;3252;52.540;13.290;2023-04-03T04:33:00;12.73;;;1.83;;
6438;SDS011;3252;52.540;13.290;2023-04-03T04:35:08;7.43;;;1.70;;
6438;SDS011;3252;52.540;13.290;2023-04-03T04:37:14;6.47;;;1.73;;
6438;SDS011;3252;52.540;13.290;2023-04-03T04:39:21;6.27;;;1.80;;
6438;SDS011;3252;52.540;13.290;2023-04-03T04:41:24;7.43;;;1.80;;
6438;SDS011;3252;52.540;13.290;2023-04-03T04:43:29;7.50;;;1.80;;
6438;SDS011;3252;52.540;13.290;2023-04-03T04:45:32;8.00;;;1.87;;
6438;SDS011;3252;52.540;13.290;2023-04-03T04:50:06;6.87;;;2.03;;
6438;SDS011;3252;52.540;13.290;2023-04-03T04:52:14;14.53;;;7.07;;
6438;SDS011;3252;52.540;13.290;2023-04-03T04:54:16;10.43;;;2.50;;
6438;SDS011;3252;52.540;13.290;2023-04-03T04:56:21;7.40;;;2.10;;
6438;SDS011;3252;52.540;13.290;2023-04-03T04:58:25;7.07;;;1.70;;
6438;SDS011;3252;52.540;13.290;2023-04-03T05:00:33;10.53;;;1.70;;
6438;SDS011;3252;52.540;13.290;2023-04-03T05:02:36;7.63;;;2.00;;
6438;SDS011;3252;52.540;13.290;2023-04-03T05:04:48;9.47;;;2.07;;
6438;SDS011;3252;52.540;13.290;2023-04-03T05:07:01;8.40;;;1.60;;
6438;SDS011;3252;52.540;13.290;2023-04-03T05:09:08;6.77;;;1.97;;
6438;SDS011;3252;52.540;13.290;2023-04-03T05:11:15;5.07;;;1.80;;
6438;SDS011;3252;52.540;13.290;2023-04-03T05:13:19;8.33;;;2.13;;
6438;SDS011;3252;52.540;13.290;2023-04-03T05:15:22;7.30;;;2.20;;
6438;SDS011;3252;52.540;13.290;2023-04-03T05:17:27;11.40;;;2.00;;
6438;SDS011;3252;52.540;13.290;2023-04-03T05:19:34;8.13;;;1.80;;
6438;SDS011;3252;52.540;13.290;2023-04-03T05:21:40;6.30;;;1.83;;
6438;SDS011;3252;52.540;13.290;2023-04-03T05:23:50;5.67;;;1.73;;
6438;SDS011;3252;52.540;13.290;2023-04-03T05:26:18;6.83;;;2.07;;
6438;SDS011;3252;52.540;13.290;2023-04-03T05:28:24;7.93;;;1.80;;
6438;SDS011;3252;52.540;13.290;2023-04-03T05:30:27;5.87;;;1.53;;
6438;SDS011;3252;52.540;13.290;2023-04-03T05:32:40;7.73;;;1.80;;
6438;SDS011;3252;52.540;13.290;2023-04-03T05:34:51;6.10;;;1.80;;
6438;SDS011;3252;52.540;13.290;2023-04-03T05:36:54;4.77;;;1.40;;
6438;SDS011;3252;52.540;13.290;2023-04-03T05:39:03;7.60;;;1.77;;
6438;SDS011;3252;52.540;13.290;2023-04-03T05:41:13;5.40;;;1.83;;
6438;SDS011;3252;52.540;13.290;2023-04-03T05:43:26;10.13;;;1.97;;
6438;SDS011;3252;52.540;13.290;2023-04-03T05:45:30;9.03;;;1.90;;
6438;SDS011;3252;52.540;13.290;2023-04-03T05:47:36;7.63;;;1.80;;
6438;SDS011;3252;52.540;13.290;2023-04-03T05:49:42;8.10;;;2.00;;
6438;SDS011;3252;52.540;13.290;2023-04-03T05:51:48;8.37;;;2.00;;
6438;SDS011;3252;52.540;13.290;2023-04-03T05:54:00;9.83;;;1.83;;
6438;SDS011;3252;52.540;13.290;2023-04-03T05:56:07;8.47;;;2.00;;
6438;SDS011;3252;52.540;13.290;2023-04-03T05:58:17;5.53;;;1.70;;
6438;SDS011;3252;52.540;13.290;2023-04-03T06:00:21;8.03;;;1.70;;
6438;SDS011;3252;52.540;13.290;2023-04-03T06:02:33;7.03;;;1.87;;
6438;SDS011;3252;52.540;13.290;2023-04-03T06:04:36;11.93;;;1.83;;
6438;SDS011;3252;52.540;13.290;2023-04-03T06:06:45;8.90;;;2.43;;
6438;SDS011;3252;52.540;13.290;2023-04-03T06:08:49;6.50;;;2.00;;
6438;SDS011;3252;52.540;13.290;2023-04-03T06:10:53;8.47;;;1.97;;
6438;SDS011;3252;52.540;13.290;2023-04-03T06:12:56;6.57;;;2.20;;
6438;SDS011;3252;52.540;13.290;2023-04-03T06:14:58;7.17;;;2.10;;
6438;SDS011;3252;52.540;13.290;2023-04-03T06:17:01;5.60;;;1.70;;
6438;SDS011;3252;52.540;13.290;2023-04-03T06:19:04;4.90;;;1.40;;
6438;SDS011;3252;52.540;13.290;2023-04-03T06:21:07;8.60;;;1.93;;
6438;SDS011;3252;52.540;13.290;2023-04-03T06:23:09;5.90;;;1.60;;
6438;SDS011;3252;52.540;13.290;2023-04-03T06:25:12;6.57;;;1.87;;
6438;SDS011;3252;52.540;13.290;2023-04-03T06:27:16;8.17;;;1.77;;
6438;SDS011;3252;52.540;13.290;2023-04-03T06:29:18;8.37;;;2.37;;
6438;SDS011;3252;52.540;13.290;2023-04-03T06:31:21;7.47;;;1.73;;
6438;SDS011;3252;52.540;13.290;2023-04-03T06:33:24;8.00;;;2.17;;
6438;SDS011;3252;52.540;13.290;2023-04-03T06:35:26;6.27;;;1.83;;
6438;SDS011;3252;52.540;13.290;2023-04-03T06:37:30;7.03;;;2.20;;
6438;SDS011;3252;52.540;13.290;2023-04-03T06:39:33;5.30;;;1.80;;
6438;SDS011;3252;52.540;13.290;2023-04-03T06:41:35;5.80;;;1.53;;
6438;SDS011;3252;52.540;13.290;2023-04-03T06:43:39;6.13;;;1.50;;
6438;SDS011;3252;52.540;13.290;2023-04-03T06:45:41;11.80;;;2.00;;
6438;SDS011;3252;52.540;13.290;2023-04-03T06:47:44;7.93;;;2.00;;
6438;SDS011;3252;52.540;13.290;2023-04-03T06:49:46;7.37;;;1.83;;
6438;SDS011;3252;52.540;13.290;2023-04-03T06:51:48;7.57;;;2.20;;
6438;SDS011;3252;52.540;13.290;2023-04-03T06:53:52;6.47;;;1.73;;
6438;SDS011;3252;52.540;13.290;2023-04-03T06:55:55;8.07;;;2.27;;
6438;SDS011;3252;52.540;13.290;2023-04-03T06:57:58;5.53;;;1.90;;
6438;SDS011;3252;52.540;13.290;2023-04-03T07:00:02;5.57;;;2.07;;
6438;SDS011;3252;52.540;13.290;2023-04-03T07:02:06;9.80;;;1.97;;
6438;SDS011;3252;52.540;13.290;2023-04-03T07:04:08;7.13;;;1.80;;
6438;SDS011;3252;52.540;13.290;2023-04-03T07:06:11;6.30;;;2.07;;
6438;SDS011;3252;52.540;13.290;2023-04-03T07:08:14;4.97;;;1.23;;
6438;SDS011;3252;52.540;13.290;2023-04-03T07:10:16;9.60;;;1.97;;
6438;SDS011;3252;52.540;13.290;2023-04-03T07:12:21;5.20;;;1.63;;
6438;SDS011;3252;52.540;13.290;2023-04-03T07:14:24;6.13;;;1.77;;
6438;SDS011;3252;52.540;13.290;2023-04-03T07:16:30;4.67;;;1.60;;
6438;SDS011;3252;52.540;13.290;2023-04-03T07:18:33;6.00;;;1.50;;
6438;SDS011;3252;52.540;13.290;2023-04-03T07:20:35;7.30;;;1.40;;
6438;SDS011;3252;52.540;13.290;2023-04-03T07:22:39;6.13;;;1.33;;
6438;SDS011;3252;52.540;13.290;2023-04-03T07:24:41;6.30;;;1.87;;
6438;SDS011;3252;52.540;13.290;2023-04-03T07:26:43;6.50;;;1.40;;
6438;SDS011;3252;52.540;13.290;2023-04-03T07:28:46;6.63;;;1.40;;
6438;SDS011;3252;52.540;13.290;2023-04-03T07:30:50;6.77;;;1.50;;
6438;SDS011;3252;52.540;13.290;2023-04-03T07:32:55;4.80;;;1.37;;
6438;SDS011;3252;52.540;13.290;2023-04-03T07:34:57;4.90;;;1.53;;
6438;SDS011;3252;52.540;13.290;2023-04-03T07:36:59;5.83;;;1.37;;
6438;SDS011;3252;52.540;13.290;2023-04-03T07:39:03;3.93;;;1.20;;
6438;SDS011;3252;52.540;13.290;2023-04-03T07:41:05;3.40;;;1.10;;
6438;SDS011;3252;52.540;13.290;2023-04-03T07:43:07;4.77;;;1.43;;
6438;SDS011;3252;52.540;13.290;2023-04-03T07:45:10;2.70;;;1.40;;
6438;SDS011;3252;52.540;13.290;2023-04-03T07:47:12;4.43;;;0.93;;
6438;SDS011;3252;52.540;13.290;2023-04-03T07:49:18;4.53;;;1.27;;
6438;SDS011;3252;52.540;13.290;2023-04-03T07:51:20;3.07;;;1.13;;
6438;SDS011;3252;52.540;13.290;2023-04-03T07:53:22;4.30;;;1.30;;
6438;SDS011;3252;52.540;13.290;2023-04-03T07:55:24;5.77;;;1.27;;
6438;SDS011;3252;52.540;13.290;2023-04-03T07:57:27;6.70;;;1.40;;
6438;SDS011;3252;52.540;13.290;2023-04-03T07:59:30;8.37;;;1.70;;
6438;SDS011;3252;52.540;13.290;2023-04-03T08:01:32;6.03;;;1.30;;
6438;SDS011;3252;52.540;13.290;2023-04-03T08:03:35;5.97;;;1.30;;
6438;SDS011;3252;52.540;13.290;2023-04-03T08:05:39;5.17;;;1.10;;
6438;SDS011;3252;52.540;13.290;2023-04-03T08:07:43;5.07;;;1.20;;
6438;SDS011;3252;52.540;13.290;2023-04-03T08:09:46;7.47;;;1.50;;
6438;SDS011;3252;52.540;13.290;2023-04-03T08:11:49;6.57;;;1.30;;
6438;SDS011;3252;52.540;13.290;2023-04-03T08:13:53;5.60;;;1.40;;
6438;SDS011;3252;52.540;13.290;2023-04-03T08:15:56;3.93;;;1.40;;
6438;SDS011;3252;52.540;13.290;2023-04-03T08:17:59;4.67;;;1.43;;
6438;SDS011;3252;52.540;13.290;2023-04-03T08:20:02;2.83;;;1.20;;
6438;SDS011;3252;52.540;13.290;2023-04-03T08:22:06;4.23;;;1.40;;
6438;SDS011;3252;52.540;13.290;2023-04-03T08:24:09;4.20;;;1.73;;
6438;SDS011;3252;52.540;13.290;2023-04-03T08:26:12;5.47;;;1.47;;
6438;SDS011;3252;52.540;13.290;2023-04-03T08:28:15;10.37;;;1.70;;
6438;SDS011;3252;52.540;13.290;2023-04-03T08:30:17;4.87;;;1.50;;
6438;SDS011;3252;52.540;13.290;2023-04-03T08:32:20;3.90;;;1.30;;
6438;SDS011;3252;52.540;13.290;2023-04-03T08:34:22;4.27;;;1.80;;
6438;SDS011;3252;52.540;13.290;2023-04-03T08:36:26;6.30;;;1.07;;
6438;SDS011;3252;52.540;13.290;2023-04-03T08:38:30;4.73;;;1.10;;
6438;SDS011;3252;52.540;13.290;2023-04-03T08:40:33;3.60;;;1.37;;
6438;SDS011;3252;52.540;13.290;2023-04-03T08:42:38;3.53;;;0.93;;
6438;SDS011;3252;52.540;13.290;2023-04-03T08:44:46;3.67;;;1.10;;
6438;SDS011;3252;52.540;13.290;2023-04-03T08:47:02;6.67;;;1.43;;
6438;SDS011;3252;52.540;13.290;2023-04-03T08:49:15;5.67;;;1.40;;
6438;SDS011;3252;52.540;13.290;2023-04-03T08:51:24;8.43;;;1.50;;
6438;SDS011;3252;52.540;13.290;2023-04-03T08:53:32;4.97;;;1.27;;
6438;SDS011;3252;52.540;13.290;2023-04-03T08:55:37;2.53;;;1.03;;
6438;SDS011;3252;52.540;13.290;2023-04-03T08:57:44;6.47;;;1.10;;
6438;SDS011;3252;52.540;13.290;2023-04-03T08:59:49;5.73;;;1.40;;
6438;SDS011;3252;52.540;13.290;2023-04-03T09:01:52;7.40;;;1.20;;
6438;SDS011;3252;52.540;13.290;2023-04-03T09:03:55;5.80;;;1.53;;
6438;SDS011;3252;52.540;13.290;2023-04-03T09:06:00;4.17;;;1.30;;
6438;SDS011;3252;52.540;13.290;2023-04-03T09:08:06;2.90;;;0.97;;
6438;SDS011;3252;52.540;13.290;2023-04-03T09:10:15;3.27;;;1.20;;
6438;SDS011;3252;52.540;13.290;2023-04-03T09:12:25;4.00;;;1.17;;
6438;SDS011;3252;52.540;13.290;2023-04-03T09:14:36;3.07;;;1.20;;
6438;SDS011;3252;52.540;13.290;2023-04-03T09:16:43;2.97;;;1.10;;
6438;SDS011;3252;52.540;13.290;2023-04-03T09:18:52;5.10;;;1.00;;
6438;SDS011;3252;52.540;13.290;2023-04-03T09:21:01;4.60;;;1.23;;
6438;SDS011;3252;52.540;13.290;2023-04-03T09:23:13;6.93;;;1.70;;
6438;SDS011;3252;52.540;13.290;2023-04-03T09:25:23;3.97;;;1.23;;
6438;SDS011;3252;52.540;13.290;2023-04-03T09:27:28;4.20;;;1.20;;
6438;SDS011;3252;52.540;13.290;2023-04-03T09:29:38;5.20;;;1.20;;
6438;SDS011;3252;52.540;13.290;2023-04-03T09:31:43;2.83;;;1.27;;
6438;SDS011;3252;52.540;13.290;2023-04-03T09:33:47;2.40;;;0.77;;
6438;SDS011;3252;52.540;13.290;2023-04-03T09:35:52;4.63;;;1.20;;
6438;SDS011;3252;52.540;13.290;2023-04-03T09:38:14;4.63;;;1.40;;
6438;SDS011;3252;52.540;13.290;2023-04-03T09:40:34;6.00;;;1.40;;
6438;SDS011;3252;52.540;13.290;2023-04-03T09:42:39;3.63;;;1.13;;
6438;SDS011;3252;52.540;13.290;2023-04-03T09:44:44;3.30;;;1.03;;
6438;SDS011;3252;52.540;13.290;2023-04-03T09:46:56;8.60;;;1.47;;
6438;SDS011;3252;52.540;13.290;2023-04-03T09:49:00;2.23;;;0.97;;
6438;SDS011;3252;52.540;13.290;2023-04-03T09:51:04;3.47;;;1.17;;
6438;SDS011;3252;52.540;13.290;2023-04-03T09:53:10;4.33;;;1.13;;
6438;SDS011;3252;52.540;13.290;2023-04-03T09:55:42;5.10;;;1.20;;
6438;SDS011;3252;52.540;13.290;2023-04-03T09:57:45;2.33;;;1.00;;
6438;SDS011;3252;52.540;13.290;2023-04-03T09:59:56;6.97;;;1.47;;
6438;SDS011;3252;52.540;13.290;2023-04-03T10:02:02;2.67;;;1.00;;
6438;SDS011;3252;52.540;13.290;2023-04-03T10:04:07;3.03;;;1.03;;
6438;SDS011;3252;52.540;13.290;2023-04-03T10:06:22;1.40;;;0.90;;
6438;SDS011;3252;52.540;13.290;2023-04-03T10:08:29;5.07;;;0.93;;
6438;SDS011;3252;52.540;13.290;2023-04-03T10:10:32;3.00;;;1.10;;
6438;SDS011;3252;52.540;13.290;2023-04-03T10:12:36;5.03;;;1.10;;
6438;SDS011;3252;52.540;13.290;2023-04-03T10:14:39;5.37;;;1.20;;
6438;SDS011;3252;52.540;13.290;2023-04-03T10:16:56;4.30;;;1.10;;
6438;SDS011;3252;52.540;13.290;2023-04-03T10:19:17;3.90;;;1.10;;
6438;SDS011;3252;52.540;13.290;2023-04-03T10:21:33;1.93;;;0.80;;
6438;SDS011;3252;52.540;13.290;2023-04-03T10:23:44;3.37;;;1.10;;
6438;SDS011;3252;52.540;13.290;2023-04-03T10:25:54;4.77;;;1.40;;
6438;SDS011;3252;52.540;13.290;2023-04-03T10:28:08;8.90;;;1.30;;
6438;SDS011;3252;52.540;13.290;2023-04-03T10:30:32;3.47;;;0.90;;
6438;SDS011;3252;52.540;13.290;2023-04-03T10:32:45;2.93;;;1.00;;
6438;SDS011;3252;52.540;13.290;2023-04-03T10:34:57;1.83;;;0.93;;
6438;SDS011;3252;52.540;13.290;2023-04-03T10:37:11;3.67;;;1.00;;
6438;SDS011;3252;52.540;13.290;2023-04-03T10:39:23;4.20;;;1.00;;
6438;SDS011;3252;52.540;13.290;2023-04-03T10:41:39;3.47;;;1.30;;
6438;SDS011;3252;52.540;13.290;2023-04-03T10:43:55;3.03;;;1.23;;
6438;SDS011;3252;52.540;13.290;2023-04-03T10:46:07;4.33;;;1.00;;
6438;SDS011;3252;52.540;13.290;2023-04-03T10:48:16;6.97;;;0.90;;
6438;SDS011;3252;52.540;13.290;2023-04-03T10:50:31;3.33;;;1.07;;
6438;SDS011;3252;52.540;13.290;2023-04-03T10:52:42;3.07;;;1.10;;
6438;SDS011;3252;52.540;13.290;2023-04-03T10:54:52;4.57;;;1.37;;
6438;SDS011;3252;52.540;13.290;2023-04-03T10:57:05;2.20;;;1.00;;
6438;SDS011;3252;52.540;13.290;2023-04-03T10:59:15;2.77;;;0.90;;
6438;SDS011;3252;52.540;13.290;2023-04-03T11:01:24;4.17;;;1.03;;
6438;SDS011;3252;52.540;13.290;2023-04-03T11:03:32;4.30;;;0.90;;
6438;SDS011;3252;52.540;13.290;2023-04-03T11:05:39;3.13;;;0.80;;
6438;SDS011;3252;52.540;13.290;2023-04-03T11:07:45;2.10;;;1.10;;
6438;SDS011;3252;52.540;13.290;2023-04-03T11:09:52;6.40;;;1.27;;
6438;SDS011;3252;52.540;13.290;2023-04-03T11:12:00;4.80;;;1.37;;
6438;SDS011;3252;52.540;13.290;2023-04-03T11:14:05;2.77;;;1.07;;
6438;SDS011;3252;52.540;13.290;2023-04-03T11:16:19;2.87;;;1.10;;
6438;SDS011;3252;52.540;13.290;2023-04-03T11:18:25;4.73;;;1.30;;
6438;SDS011;3252;52.540;13.290;2023-04-03T11:20:32;2.53;;;0.90;;
6438;SDS011;3252;52.540;13.290;2023-04-03T11:22:38;4.50;;;1.30;;
6438;SDS011;3252;52.540;13.290;2023-04-03T11:24:45;1.77;;;0.97;;
6438;SDS011;3252;52.540;13.290;2023-04-03T11:26:53;2.63;;;0.97;;
6438;SDS011;3252;52.540;13.290;2023-04-03T11:28:58;5.63;;;0.97;;
6438;SDS011;3252;52.540;13.290;2023-04-03T11:31:07;2.70;;;0.80;;
6438;SDS011;3252;52.540;13.290;2023-04-03T11:33:37;2.77;;;1.07;;
6438;SDS011;3252;52.540;13.290;2023-04-03T11:35:48;3.90;;;1.40;;
6438;SDS011;3252;52.540;13.290;2023-04-03T11:37:53;3.70;;;1.30;;
6438;SDS011;3252;52.540;13.290;2023-04-03T11:39:58;6.37;;;1.20;;
6438;SDS011;3252;52.540;13.290;2023-04-03T11:42:13;3.47;;;1.37;;
6438;SDS011;3252;52.540;13.290;2023-04-03T11:44:32;4.13;;;1.10;;
6438;SDS011;3252;52.540;13.290;2023-04-03T11:46:50;3.80;;;1.20;;
6438;SDS011;3252;52.540;13.290;2023-04-03T11:48:54;3.37;;;1.10;;
6438;SDS011;3252;52.540;13.290;2023-04-03T11:50:57;3.77;;;1.30;;
6438;SDS011;3252;52.540;13.290;2023-04-03T11:53:01;3.57;;;1.03;;
6438;SDS011;3252;52.540;13.290;2023-04-03T11:57:45;5.40;;;1.10;;
6438;SDS011;3252;52.540;13.290;2023-04-03T12:02:40;2.50;;;1.10;;
6438;SDS011;3252;52.540;13.290;2023-04-03T12:04:42;2.50;;;0.93;;
6438;SDS011;3252;52.540;13.290;2023-04-03T12:07:23;3.07;;;1.10;;
6438;SDS011;3252;52.540;13.290;2023-04-03T12:09:31;2.03;;;0.87;;
6438;SDS011;3252;52.540;13.290;2023-04-03T12:11:35;5.20;;;1.10;;
6438;SDS011;3252;52.540;13.290;2023-04-03T12:13:39;2.90;;;0.97;;
6438;SDS011;3252;52.540;13.290;2023-04-03T12:15:50;3.53;;;1.13;;
6438;SDS011;3252;52.540;13.290;2023-04-03T12:17:55;2.87;;;1.00;;
6438;SDS011;3252;52.540;13.290;2023-04-03T12:19:58;3.47;;;1.10;;
6438;SDS011;3252;52.540;13.290;2023-04-03T12:24:23;3.43;;;1.33;;
6438;SDS011;3252;52.540;13.290;2023-04-03T12:26:30;3.47;;;1.17;;
6438;SDS011;3252;52.540;13.290;2023-04-03T12:28:37;4.00;;;1.27;;
6438;SDS011;3252;52.540;13.290;2023-04-03T12:30:40;4.87;;;1.20;;
6438;SDS011;3252;52.540;13.290;2023-04-03T12:32:47;3.80;;;1.27;;
6438;SDS011;3252;52.540;13.290;2023-04-03T12:35:17;3.23;;;1.13;;
6438;SDS011;3252;52.540;13.290;2023-04-03T12:37:31;3.67;;;1.30;;
6438;SDS011;3252;52.540;13.290;2023-04-03T12:39:54;5.30;;;1.00;;
6438;SDS011;3252;52.540;13.290;2023-04-03T12:42:08;4.07;;;1.30;;
6438;SDS011;3252;52.540;13.290;2023-04-03T12:46:48;3.57;;;1.13;;
6438;SDS011;3252;52.540;13.290;2023-04-03T12:48:54;3.27;;;1.10;;
6438;SDS011;3252;52.540;13.290;2023-04-03T12:50:58;2.57;;;1.10;;
6438;SDS011;3252;52.540;13.290;2023-04-03T12:53:02;3.77;;;1.20;;
6438;SDS011;3252;52.540;13.290;2023-04-03T12:55:14;2.10;;;0.97;;
6438;SDS011;3252;52.540;13.290;2023-04-03T12:57:21;1.77;;;0.83;;
6438;SDS011;3252;52.540;13.290;2023-04-03T12:59:26;3.90;;;0.90;;
6438;SDS011;3252;52.540;13.290;2023-04-03T13:01:28;3.17;;;0.80;;
6438;SDS011;3252;52.540;13.290;2023-04-03T13:03:30;3.57;;;1.10;;
6438;SDS011;3252;52.540;13.290;2023-04-03T13:05:34;2.50;;;0.93;;
6438;SDS011;3252;52.540;13.290;2023-04-03T13:07:37;3.30;;;1.10;;
6438;SDS011;3252;52.540;13.290;2023-04-03T13:09:41;2.10;;;0.90;;